Time;durP1;ratioP1;P1;durP2;ratioP2;P2;SDS_P1;SDS_P2;PMS_P1;PMS_P2;Temp;Humidity;BMP_temperature;BMP_pressure;BME280_temperature;BME280_humidity;BME280_pressure;Samples;Min_cycle;Max_cycle;Signal;HPM_P1;HPM_P2
2023/09/01 00:01:27;;;;;;;1292.78;999.90;;;26.30;99.90;;;;;;5025314;28;20056;-70
2023/09/01 00:03:53;;;;;;;1278.97;999.90;;;26.40;99.90;;;;;;5033818;28;20032;-71
2023/09/01 00:06:20;;;;;;;1267.47;999.90;;;26.40;99.90;;;;;;5033625;28;20032;-71
2023/09/01 00:08:47;;;;;;;1251.88;999.90;;;26.40;99.90;;;;;;5033932;28;20072;-70
2023/09/01 00:11:13;;;;;;;1249.03;999.90;;;26.40;99.90;;;;;;5033507;28;20064;-70
2023/09/01 00:13:41;;;;;;;1302.13;999.90;;;26.50;99.90;;;;;;5033142;28;20537;-71
2023/09/01 00:16:08;;;;;;;1298.07;999.90;;;26.50;99.90;;;;;;5028840;28;20030;-71
2023/09/01 00:18:36;;;;;;;1329.30;999.90;;;26.60;99.90;;;;;;5033641;28;20032;-70
2023/09/01 00:21:03;;;;;;;1320.75;999.90;;;26.60;99.90;;;;;;5033634;28;20038;-70
2023/09/01 00:23:30;;;;;;;1325.25;999.90;;;26.60;99.90;;;;;;5033670;28;20060;-70
2023/09/01 00:25:58;;;;;;;1337.38;999.90;;;26.70;99.90;;;;;;5033439;28;20031;-69
2023/09/01 00:28:25;;;;;;;1516.00;999.90;;;26.80;99.90;;;;;;5033557;28;20082;-70
2023/09/01 00:30:55;;;;;;;1481.60;999.90;;;26.80;99.90;;;;;;5032935;28;20402;-70
2023/09/01 00:33:25;;;;;;;1341.80;999.90;;;26.90;99.90;;;;;;5033078;28;20033;-69
2023/09/01 00:35:52;;;;;;;1335.15;999.90;;;26.90;99.90;;;;;;5033400;28;20052;-70
2023/09/01 00:38:19;;;;;;;1341.65;999.90;;;26.90;99.90;;;;;;5033349;28;20033;-69
2023/09/01 00:40:49;;;;;;;1329.45;999.90;;;27.00;99.90;;;;;;5013493;28;20030;-70
2023/09/01 00:43:16;;;;;;;1328.68;999.90;;;27.00;99.90;;;;;;5013624;28;20113;-69
2023/09/01 00:45:43;;;;;;;1443.40;999.90;;;27.10;99.90;;;;;;5013511;28;20182;-69
2023/09/01 00:48:13;;;;;;;1334.13;999.90;;;27.20;99.90;;;;;;5013438;28;20017;-69
2023/09/01 00:50:40;;;;;;;1347.10;999.90;;;27.20;99.90;;;;;;5013537;28;20026;-68
2023/09/01 00:53:08;;;;;;;1340.43;999.90;;;27.30;99.90;;;;;;5014178;28;20026;-69
2023/09/01 00:55:35;;;;;;;1339.40;999.90;;;27.40;99.90;;;;;;5033066;28;20052;-68
2023/09/01 00:58:02;;;;;;;1370.63;999.90;;;27.40;99.90;;;;;;5033094;28;20360;-69
2023/09/01 01:00:32;;;;;;;1357.80;999.90;;;27.50;99.90;;;;;;5033151;28;20021;-69
2023/09/01 01:03:02;;;;;;;1362.03;999.90;;;27.60;99.90;;;;;;5016014;28;20030;-69
2023/09/01 01:05:53;;;;;;;1360.20;999.90;;;27.60;99.90;;;;;;5013405;28;20115;-70
2023/09/01 01:08:28;;;;;;;1346.25;999.90;;;27.70;99.90;;;;;;5013357;28;20026;-70
2023/09/01 01:11:16;;;;;;;1328.93;999.90;;;27.80;99.90;;;;;;5024599;28;20025;-69
2023/09/01 01:13:47;;;;;;;1336.93;999.90;;;27.90;99.90;;;;;;5028003;28;20398;-69
2023/09/01 01:16:16;;;;;;;1422.20;999.90;;;28.00;99.90;;;;;;5032603;28;20021;-68
2023/09/01 01:18:45;;;;;;;1454.00;999.90;;;28.00;99.90;;;;;;5032496;28;20493;-69
2023/09/01 01:21:17;;;;;;;1398.47;999.90;;;28.10;99.90;;;;;;5032572;28;20037;-70
2023/09/01 01:23:44;;;;;;;1389.53;999.90;;;28.10;99.90;;;;;;5032619;28;20117;-70
2023/09/01 01:26:21;;;;;;;1470.13;999.90;;;28.10;99.90;;;;;;5021935;28;20025;-69
2023/09/01 01:28:48;;;;;;;1400.47;999.90;;;28.10;99.90;;;;;;5031441;28;20026;-69
2023/09/01 01:31:14;;;;;;;1430.63;999.90;;;28.20;99.90;;;;;;5032625;28;20016;-69
2023/09/01 01:33:59;;;;;;;1393.82;999.90;;;28.20;99.90;;;;;;5023140;28;20506;-69
2023/09/01 01:36:33;;;;;;;1373.03;999.90;;;28.30;99.90;;;;;;5031078;28;20044;-69
2023/09/01 01:39:06;;;;;;;1337.20;999.90;;;28.30;99.90;;;;;;5030115;28;20100;-69
2023/09/01 01:41:35;;;;;;;1357.45;999.90;;;28.40;99.90;;;;;;5032824;28;20022;-69
2023/09/01 01:44:03;;;;;;;1353.30;999.90;;;28.50;99.90;;;;;;5032497;28;20045;-69
2023/09/01 01:46:30;;;;;;;1357.82;999.90;;;28.60;99.90;;;;;;5032852;28;20017;-68
2023/09/01 01:48:57;;;;;;;1359.57;999.90;;;28.70;99.90;;;;;;5032920;28;20509;-68
2023/09/01 01:51:23;;;;;;;1463.78;999.90;;;28.70;99.90;;;;;;5032588;28;20025;-68
2023/09/01 01:53:50;;;;;;;1465.55;999.90;;;28.70;99.90;;;;;;5032846;28;20018;-67
2023/09/01 01:56:17;;;;;;;1522.60;999.90;;;28.80;99.90;;;;;;5032629;28;20383;-68
2023/09/01 01:58:43;;;;;;;1496.82;999.90;;;28.90;99.90;;;;;;5032484;28;20105;-68
2023/09/01 02:01:10;;;;;;;1517.40;999.90;;;28.90;99.90;;;;;;5032399;28;20029;-67
2023/09/01 02:03:36;;;;;;;1488.38;999.90;;;29.00;99.90;;;;;;5032470;28;20470;-67
2023/09/01 02:06:03;;;;;;;1515.93;999.90;;;29.00;99.90;;;;;;5034482;28;20040;-68
2023/09/01 02:08:30;;;;;;;1503.07;999.90;;;29.20;99.90;;;;;;5035416;28;20029;-68
2023/09/01 02:10:57;;;;;;;1524.03;999.90;;;29.30;99.90;;;;;;5035799;28;20025;-68
2023/09/01 02:13:23;;;;;;;1417.18;999.90;;;29.40;99.90;;;;;;5035587;28;20053;-68
2023/09/01 02:15:52;;;;;;;1476.40;999.90;;;29.40;99.90;;;;;;5035520;28;20029;-67
2023/09/01 02:18:20;;;;;;;1516.97;999.90;;;29.40;99.90;;;;;;5035298;28;20025;-66
2023/09/01 02:20:47;;;;;;;1502.43;999.90;;;29.50;99.90;;;;;;5035786;28;20116;-67
2023/09/01 02:23:16;;;;;;;1508.22;999.90;;;29.40;99.90;;;;;;5035702;28;20021;-68
2023/09/01 02:25:44;;;;;;;1531.07;999.90;;;29.50;99.90;;;;;;5035229;28;20315;-66
2023/09/01 02:28:11;;;;;;;1508.68;999.90;;;29.50;99.90;;;;;;5032414;28;20100;-68
2023/09/01 02:30:39;;;;;;;1516.38;999.90;;;29.50;99.90;;;;;;5034463;28;20093;-70
2023/09/01 02:33:06;;;;;;;1508.05;999.90;;;29.60;99.90;;;;;;5035349;28;20019;-66
2023/09/01 02:35:33;;;;;;;1508.75;999.90;;;29.60;99.90;;;;;;5035367;28;20022;-67
2023/09/01 02:37:59;;;;;;;1519.38;999.90;;;29.70;99.90;;;;;;5035353;28;20061;-67
2023/09/01 02:40:26;;;;;;;1525.28;999.90;;;29.70;99.90;;;;;;5033220;28;20021;-67
2023/09/01 02:42:53;;;;;;;1391.07;999.90;;;29.80;99.90;;;;;;5034960;28;20037;-70
2023/09/01 02:45:20;;;;;;;1501.60;999.90;;;29.80;99.90;;;;;;5034965;28;20037;-70
2023/09/01 02:47:46;;;;;;;1460.03;999.90;;;29.90;99.90;;;;;;5035117;28;20377;-69
2023/09/01 02:50:13;;;;;;;1411.35;999.90;;;29.90;99.90;;;;;;5022886;28;20018;-69
2023/09/01 02:52:40;;;;;;;1439.15;999.90;;;30.00;99.90;;;;;;5015694;28;20446;-70
2023/09/01 02:55:07;;;;;;;1513.03;999.90;;;30.00;99.90;;;;;;5015830;28;20061;-72
2023/09/01 02:57:35;;;;;;;1489.57;999.90;;;30.10;99.90;;;;;;5015493;28;20483;-69
2023/09/01 03:00:14;;;;;;;1509.95;999.90;;;30.20;99.90;;;;;;5015558;28;20053;-69
2023/09/01 03:02:42;;;;;;;1517.15;999.90;;;30.30;99.90;;;;;;5015234;28;20105;-71
2023/09/01 03:05:10;;;;;;;1524.35;999.90;;;30.30;99.90;;;;;;5015248;28;20534;-70
2023/09/01 03:07:38;;;;;;;1526.18;999.90;;;30.50;99.90;;;;;;5015236;28;20026;-71
2023/09/01 03:10:07;;;;;;;1520.07;999.90;;;30.50;99.90;;;;;;5015015;28;20042;-68
2023/09/01 03:12:36;;;;;;;1526.07;999.90;;;30.60;99.90;;;;;;5015123;28;20029;-68
2023/09/01 03:15:03;;;;;;;1498.55;999.90;;;30.70;99.90;;;;;;5014915;28;20421;-69
2023/09/01 03:17:30;;;;;;;1512.60;999.90;;;30.70;99.90;;;;;;5014830;28;20368;-71
2023/09/01 03:19:56;;;;;;;1509.43;999.90;;;30.70;99.90;;;;;;5013858;28;20126;-67
2023/09/01 03:22:23;;;;;;;1532.60;999.90;;;30.80;99.90;;;;;;5015331;28;20388;-67
2023/09/01 03:24:52;;;;;;;1527.00;999.90;;;30.80;99.90;;;;;;5014831;28;20033;-69
2023/09/01 03:27:19;;;;;;;1538.35;999.90;;;30.90;99.90;;;;;;5015104;28;20022;-70
2023/09/01 03:29:45;;;;;;;1530.80;999.90;;;31.00;99.90;;;;;;5015083;28;20478;-69
2023/09/01 03:32:12;;;;;;;1529.63;999.90;;;31.10;99.90;;;;;;5014857;28;20513;-71
2023/09/01 03:34:39;;;;;;;1519.57;999.90;;;31.10;99.90;;;;;;5014844;28;20041;-68
2023/09/01 03:37:08;;;;;;;1521.68;999.90;;;31.10;99.90;;;;;;5015157;28;20492;-68
2023/09/01 03:39:34;;;;;;;1531.80;999.90;;;31.10;99.90;;;;;;5014626;28;20484;-68
2023/09/01 03:42:01;;;;;;;1526.80;999.90;;;31.20;99.90;;;;;;5014897;28;20105;-68
2023/09/01 03:44:27;;;;;;;1526.40;999.90;;;31.30;99.90;;;;;;5016204;28;20085;-67
2023/09/01 03:47:24;;;;;;;1472.07;999.90;;;31.40;99.90;;;;;;5091420;28;20479;-65
2023/09/01 03:49:51;;;;;;;1485.70;999.90;;;31.60;99.90;;;;;;5081278;28;20032;-67
2023/09/01 03:52:17;;;;;;;1471.70;999.90;;;31.70;99.90;;;;;;5078208;28;20055;-66
2023/09/01 03:54:44;;;;;;;1496.70;999.90;;;31.60;99.90;;;;;;5077442;28;20496;-68
2023/09/01 03:57:10;;;;;;;1504.55;999.90;;;31.70;99.90;;;;;;5071159;28;20032;-72
2023/09/01 03:59:37;;;;;;;1488.97;999.90;;;31.70;99.90;;;;;;5070728;28;20017;-70
2023/09/01 04:02:04;;;;;;;1490.03;999.90;;;31.70;99.90;;;;;;5071023;28;20371;-72
2023/09/01 04:04:30;;;;;;;1473.80;999.90;;;31.80;99.90;;;;;;5070438;28;20164;-76
2023/09/01 04:06:57;;;;;;;1506.72;999.90;;;31.90;99.90;;;;;;5070026;28;20500;-75
2023/09/01 04:09:23;;;;;;;1481.28;999.90;;;31.90;99.90;;;;;;5070355;28;20025;-72
2023/09/01 04:11:50;;;;;;;1500.45;999.90;;;31.90;99.90;;;;;;5070378;28;20369;-71
2023/09/01 04:14:17;;;;;;;1503.93;999.90;;;32.00;99.90;;;;;;5070049;28;20013;-71
2023/09/01 04:16:43;;;;;;;1487.10;999.90;;;32.20;99.90;;;;;;5065923;28;20020;-71
2023/09/01 04:19:10;;;;;;;1498.28;999.90;;;32.10;99.90;;;;;;5060050;28;20025;-71
2023/09/01 04:21:37;;;;;;;1517.88;999.90;;;32.20;99.90;;;;;;5061583;28;20024;-69
2023/09/01 04:24:04;;;;;;;1526.85;999.90;;;32.20;99.90;;;;;;5070127;28;20036;-70
2023/09/01 04:26:31;;;;;;;1509.10;999.90;;;32.20;99.90;;;;;;5063846;28;20037;-71
2023/09/01 04:28:58;;;;;;;1493.40;999.90;;;32.30;99.90;;;;;;5058816;28;20012;-71
2023/09/01 04:31:28;;;;;;;1540.05;999.90;;;32.40;99.90;;;;;;5055388;28;20032;-71
2023/09/01 04:33:56;;;;;;;1547.35;999.90;;;32.40;99.90;;;;;;5050694;28;20026;-73
2023/09/01 04:36:23;;;;;;;1545.95;999.90;;;32.40;99.90;;;;;;5049874;28;20030;-72
2023/09/01 04:38:50;;;;;;;1540.30;999.90;;;32.40;99.90;;;;;;5050009;28;20055;-70
2023/09/01 04:41:17;;;;;;;1499.03;999.90;;;32.30;99.90;;;;;;5060557;28;20025;-71
2023/09/01 04:43:44;;;;;;;1522.10;999.90;;;32.30;99.90;;;;;;5069565;28;20047;-70
2023/09/01 04:46:10;;;;;;;1482.82;999.90;;;32.50;99.90;;;;;;5064144;28;20420;-73
2023/09/01 04:48:37;;;;;;;1445.88;999.90;;;32.50;99.90;;;;;;5058558;28;20416;-74
2023/09/01 04:51:04;;;;;;;1423.97;999.90;;;32.50;99.90;;;;;;5060512;28;20043;-72
2023/09/01 04:53:30;;;;;;;1407.00;999.90;;;32.70;99.90;;;;;;5059071;28;20025;-72
2023/09/01 04:55:57;;;;;;;1397.70;999.90;;;32.80;99.80;;;;;;5058872;28;20017;-71
2023/09/01 04:58:24;;;;;;;1383.18;999.90;;;32.80;99.20;;;;;;5048601;28;20020;-72
2023/09/01 05:00:53;;;;;;;1392.05;999.90;;;32.90;99.40;;;;;;5044370;28;20594;-71
2023/09/01 05:03:20;;;;;;;1389.90;999.90;;;32.90;99.20;;;;;;5036433;28;20030;-75
2023/09/01 05:05:49;;;;;;;1391.22;999.90;;;33.00;98.70;;;;;;5036244;28;20474;-70
2023/09/01 05:08:16;;;;;;;1367.88;999.90;;;32.90;99.10;;;;;;5036291;28;20099;-74
2023/09/01 05:10:43;;;;;;;1382.38;999.90;;;33.00;98.70;;;;;;5036215;28;20429;-71
2023/09/01 05:13:09;;;;;;;1386.97;999.90;;;33.00;98.40;;;;;;5036207;28;20017;-71
2023/09/01 05:15:36;;;;;;;1381.65;999.90;;;33.00;98.40;;;;;;5036194;28;20033;-70
2023/09/01 05:18:03;;;;;;;1376.20;999.90;;;33.00;98.50;;;;;;5037982;28;20033;-70
2023/09/01 05:20:29;;;;;;;1377.80;999.90;;;32.90;98.50;;;;;;5035104;28;20454;-69
2023/09/01 05:22:56;;;;;;;1367.47;999.90;;;32.80;98.30;;;;;;5035676;28;20025;-71
2023/09/01 05:25:22;;;;;;;1382.40;999.90;;;32.90;98.40;;;;;;5035738;28;20053;-70
2023/09/01 05:27:49;;;;;;;1381.55;999.90;;;33.00;98.20;;;;;;5035851;28;20022;-70
2023/09/01 05:30:15;;;;;;;1367.55;999.90;;;33.00;98.10;;;;;;5035763;28;20026;-70
2023/09/01 05:32:42;;;;;;;1367.97;999.90;;;33.00;98.30;;;;;;5036444;28;20013;-72
2023/09/01 05:35:09;;;;;;;1374.57;999.90;;;33.00;98.10;;;;;;5075327;28;20146;-71
2023/09/01 05:37:35;;;;;;;1360.55;999.90;;;32.90;97.80;;;;;;5075373;28;20020;-72
2023/09/01 05:40:03;;;;;;;1372.05;999.90;;;33.10;97.70;;;;;;5075283;28;20016;-69
2023/09/01 05:42:29;;;;;;;1366.95;999.90;;;33.20;97.10;;;;;;5075577;28;20477;-70
2023/09/01 05:44:56;;;;;;;1373.47;999.90;;;33.20;97.00;;;;;;5075096;28;20489;-69
2023/09/01 05:47:23;;;;;;;1410.15;999.90;;;33.20;97.10;;;;;;5071232;28;20024;-67
2023/09/01 05:49:49;;;;;;;1377.90;999.90;;;33.20;97.20;;;;;;5068634;28;20469;-72
2023/09/01 05:52:16;;;;;;;1357.22;999.90;;;33.00;96.60;;;;;;5056363;28;20021;-71
2023/09/01 05:54:42;;;;;;;1365.93;999.90;;;33.10;96.60;;;;;;5055413;28;20021;-70
2023/09/01 05:57:09;;;;;;;1343.15;999.90;;;33.00;96.40;;;;;;5055309;28;20096;-71
2023/09/01 05:59:35;;;;;;;1370.85;999.90;;;33.00;96.60;;;;;;5050418;28;20025;-68
2023/09/01 06:02:02;;;;;;;1375.45;999.90;;;33.20;95.50;;;;;;5049072;28;20032;-70
2023/09/01 06:04:28;;;;;;;1436.50;999.90;;;33.30;95.60;;;;;;5044653;28;20029;-69
2023/09/01 06:06:55;;;;;;;1391.07;999.90;;;33.30;95.90;;;;;;5046771;28;20026;-69
2023/09/01 06:09:21;;;;;;;1390.22;999.90;;;33.40;95.70;;;;;;5043044;28;20029;-71
2023/09/01 06:11:48;;;;;;;1370.82;999.90;;;33.40;95.50;;;;;;5045949;28;20013;-70
2023/09/01 06:14:15;;;;;;;1385.72;999.90;;;33.30;95.90;;;;;;5048709;28;20454;-72
2023/09/01 06:16:44;;;;;;;1380.60;999.90;;;33.40;95.90;;;;;;5051281;28;20032;-70
2023/09/01 06:19:10;;;;;;;1384.45;999.90;;;33.40;96.30;;;;;;5044967;28;20032;-70
2023/09/01 06:21:37;;;;;;;1384.15;999.90;;;33.60;96.10;;;;;;5044944;28;20033;-71
2023/09/01 06:24:04;;;;;;;1376.10;999.90;;;33.70;95.50;;;;;;5043665;28;20029;-70
2023/09/01 06:26:30;;;;;;;1382.38;999.90;;;33.80;95.40;;;;;;5044740;28;20021;-71
2023/09/01 06:29:00;;;;;;;1373.43;999.90;;;33.80;94.60;;;;;;5045978;28;20013;-72
2023/09/01 06:31:26;;;;;;;1370.45;999.90;;;33.90;94.30;;;;;;5042701;28;20079;-73
2023/09/01 06:33:53;;;;;;;1387.78;999.90;;;34.00;93.90;;;;;;5039629;28;20017;-72
2023/09/01 06:36:19;;;;;;;1383.95;999.90;;;34.10;94.10;;;;;;5036175;28;20025;-71
2023/09/01 06:38:47;;;;;;;1386.43;999.90;;;34.10;94.20;;;;;;5064280;28;20422;-72
2023/09/01 06:41:14;;;;;;;1395.43;999.90;;;34.20;93.00;;;;;;5068167;28;20111;-73
2023/09/01 06:43:41;;;;;;;1405.07;999.90;;;34.10;93.30;;;;;;5063497;28;20021;-70
2023/09/01 06:46:07;;;;;;;1437.07;999.90;;;34.10;93.70;;;;;;5071988;28;20052;-71
2023/09/01 06:48:35;;;;;;;1539.85;999.90;;;34.00;93.80;;;;;;5074069;28;20077;-72
2023/09/01 06:51:02;;;;;;;1549.47;999.90;;;34.00;93.70;;;;;;5073947;28;20043;-71
2023/09/01 06:53:29;;;;;;;1560.65;999.90;;;34.00;93.10;;;;;;5073930;28;20105;-70
2023/09/01 06:55:55;;;;;;;1555.57;999.90;;;34.10;93.60;;;;;;5074133;28;20028;-71
2023/09/01 06:58:22;;;;;;;1552.35;999.90;;;34.20;93.40;;;;;;5073825;28;20523;-71
2023/09/01 07:00:51;;;;;;;1554.03;999.90;;;34.20;93.60;;;;;;5074048;28;20043;-65
2023/09/01 07:03:19;;;;;;;1529.65;999.90;;;34.30;93.50;;;;;;5073945;28;20051;-67
2023/09/01 07:05:54;;;;;;;1532.40;999.90;;;34.30;94.20;;;;;;5073611;28;20025;-67
2023/09/01 07:08:21;;;;;;;1548.57;999.90;;;34.20;94.10;;;;;;5073850;28;20025;-68
2023/09/01 07:10:47;;;;;;;1555.25;999.90;;;34.10;93.60;;;;;;5073573;28;20050;-67
2023/09/01 07:13:14;;;;;;;1544.40;999.90;;;34.10;93.60;;;;;;5041497;28;20391;-68
2023/09/01 07:15:40;;;;;;;1569.93;999.90;;;34.20;93.50;;;;;;5063398;28;20470;-68
2023/09/01 07:18:07;;;;;;;1586.40;999.90;;;34.20;93.30;;;;;;5073570;28;20025;-68
2023/09/01 07:20:33;;;;;;;1572.75;999.90;;;34.30;92.70;;;;;;5073154;28;20023;-68
2023/09/01 07:23:00;;;;;;;1576.38;999.90;;;34.20;92.20;;;;;;5073702;28;20107;-69
2023/09/01 07:25:26;;;;;;;1568.25;999.90;;;34.10;92.30;;;;;;5073425;28;20028;-71
2023/09/01 07:27:53;;;;;;;1588.32;999.90;;;34.20;92.60;;;;;;5073506;28;20470;-71
2023/09/01 07:30:19;;;;;;;1586.28;999.90;;;34.20;93.00;;;;;;5073272;28;20016;-69
2023/09/01 07:32:46;;;;;;;1579.07;999.90;;;34.20;92.70;;;;;;5073340;28;20108;-67
2023/09/01 07:35:12;;;;;;;1587.32;999.90;;;34.30;93.20;;;;;;5061126;28;20539;-69
2023/09/01 07:37:39;;;;;;;1548.10;999.90;;;34.40;93.20;;;;;;5058421;28;20036;-69
2023/09/01 07:40:06;;;;;;;1542.40;999.90;;;34.40;92.10;;;;;;5067466;28;20091;-76
2023/09/01 07:42:33;;;;;;;1537.80;999.90;;;34.40;92.50;;;;;;5073041;28;20024;-70
2023/09/01 07:45:00;;;;;;;1529.97;999.90;;;34.40;92.50;;;;;;5072486;28;20021;-69
2023/09/01 07:47:27;;;;;;;1534.35;999.90;;;34.50;92.20;;;;;;5071663;28;20060;-67
2023/09/01 07:49:53;;;;;;;1541.78;999.90;;;34.50;91.60;;;;;;5072666;28;20225;-69
2023/09/01 07:52:20;;;;;;;1561.43;999.90;;;34.40;92.10;;;;;;5072449;28;20474;-70
2023/09/01 07:54:46;;;;;;;1549.30;999.90;;;34.60;92.10;;;;;;5066874;28;20087;-69
2023/09/01 07:57:13;;;;;;;1509.40;999.90;;;34.60;91.50;;;;;;5049954;28;20399;-69
2023/09/01 07:59:39;;;;;;;1545.38;999.90;;;34.40;91.40;;;;;;5052728;28;20021;-69
2023/09/01 08:02:06;;;;;;;1533.38;999.90;;;34.30;91.20;;;;;;5053051;28;20052;-69
2023/09/01 08:04:33;;;;;;;1545.13;999.90;;;34.20;91.10;;;;;;5052701;28;20021;-69
2023/09/01 08:06:59;;;;;;;1554.72;999.90;;;34.00;91.40;;;;;;5052508;28;20029;-72
2023/09/01 08:09:27;;;;;;;1534.80;999.90;;;34.10;91.60;;;;;;5052761;28;20062;-72
2023/09/01 08:11:53;;;;;;;1552.07;999.90;;;34.10;91.90;;;;;;5052758;28;20021;-71
2023/09/01 08:14:20;;;;;;;1557.53;999.90;;;34.20;91.80;;;;;;5052596;28;20018;-71
2023/09/01 08:16:47;;;;;;;1558.28;999.90;;;34.10;91.50;;;;;;5052709;28;20040;-71
2023/09/01 08:19:14;;;;;;;1558.70;999.90;;;34.20;91.50;;;;;;5049578;28;20029;-74
2023/09/01 08:21:41;;;;;;;1552.30;999.90;;;34.20;91.60;;;;;;5041285;28;20053;-71
2023/09/01 08:24:08;;;;;;;1545.88;999.90;;;34.20;91.80;;;;;;5042585;28;20048;-70
2023/09/01 08:26:36;;;;;;;1558.60;999.90;;;34.20;91.60;;;;;;5042746;28;20056;-69
2023/09/01 08:29:04;;;;;;;1545.13;999.90;;;34.10;91.50;;;;;;5040561;28;20394;-68
2023/09/01 08:31:32;;;;;;;1553.43;999.90;;;34.10;91.40;;;;;;5042070;28;20028;-75
2023/09/01 08:33:59;;;;;;;1540.80;999.90;;;34.00;91.30;;;;;;5046704;28;20024;-69
2023/09/01 08:36:26;;;;;;;1549.07;999.90;;;34.00;91.20;;;;;;5045106;28;20471;-70
2023/09/01 08:38:53;;;;;;;1554.68;999.90;;;34.00;91.50;;;;;;5045417;28;20025;-69
2023/09/01 08:41:20;;;;;;;1547.53;999.90;;;34.10;91.60;;;;;;5046781;28;20097;-69
2023/09/01 08:43:48;;;;;;;1546.75;999.90;;;34.20;90.60;;;;;;5045091;28;20025;-72
2023/09/01 08:46:18;;;;;;;1546.03;999.90;;;34.30;90.50;;;;;;5044680;28;20037;-69
2023/09/01 08:48:44;;;;;;;1536.45;999.90;;;34.30;90.90;;;;;;5044818;28;20522;-71
2023/09/01 08:51:14;;;;;;;1541.97;999.90;;;34.30;90.40;;;;;;5045507;28;20477;-71
2023/09/01 08:53:42;;;;;;;1534.28;999.90;;;34.30;90.20;;;;;;5046655;28;20021;-73
2023/09/01 08:56:09;;;;;;;1546.55;999.90;;;34.30;90.10;;;;;;5045688;28;20022;-72
2023/09/01 08:58:36;;;;;;;1545.40;999.90;;;34.30;90.30;;;;;;5044698;28;20028;-71
2023/09/01 09:01:03;;;;;;;1550.28;999.90;;;34.30;90.20;;;;;;5044027;28;20478;-76
2023/09/01 09:03:30;;;;;;;1552.28;999.90;;;34.30;90.20;;;;;;5035678;28;20030;-73
2023/09/01 09:05:56;;;;;;;1542.20;999.90;;;34.30;90.60;;;;;;5035593;28;20378;-70
2023/09/01 09:08:23;;;;;;;1522.28;999.90;;;34.30;90.30;;;;;;5035874;28;20018;-70
2023/09/01 09:10:49;;;;;;;1528.97;999.90;;;34.30;90.30;;;;;;5041189;28;20013;-70
2023/09/01 09:13:24;;;;;;;1537.57;999.90;;;34.30;90.40;;;;;;5046121;28;20160;-70
2023/09/01 09:16:11;;;;;;;1539.03;999.90;;;34.30;90.50;;;;;;5048212;28;20036;-70
2023/09/01 09:18:40;;;;;;;1533.68;999.90;;;34.30;90.80;;;;;;5049141;28;20108;-70
2023/09/01 09:21:26;;;;;;;1524.10;999.90;;;34.20;90.20;;;;;;5038409;28;20097;-71
2023/09/01 09:23:55;;;;;;;1544.03;999.90;;;34.10;90.60;;;;;;5035885;28;20033;-70
2023/09/01 09:26:26;;;;;;;1530.63;999.90;;;34.10;90.50;;;;;;5035697;28;20044;-70
2023/09/01 09:28:53;;;;;;;1538.33;999.90;;;34.10;90.50;;;;;;5036999;28;20052;-68
2023/09/01 09:31:36;;;;;;;1522.40;999.90;;;34.10;89.60;;;;;;5045499;28;20092;-70
2023/09/01 09:34:18;;;;;;;1514.25;999.90;;;34.10;90.50;;;;;;5045849;28;20103;-70
2023/09/01 09:36:46;;;;;;;1526.78;999.90;;;34.00;90.30;;;;;;5044615;28;20021;-71
2023/09/01 09:39:34;;;;;;;1553.88;999.90;;;34.10;90.50;;;;;;5044760;28;20536;-71
2023/09/01 09:42:01;;;;;;;1546.80;999.90;;;34.10;91.00;;;;;;5046016;28;20274;-70
2023/09/01 09:44:33;;;;;;;1551.07;999.90;;;34.00;91.60;;;;;;5044486;28;20013;-70
2023/09/01 09:47:03;;;;;;;1552.63;999.90;;;34.00;91.50;;;;;;5047040;28;20128;-70
2023/09/01 09:49:32;;;;;;;1542.57;999.90;;;34.00;91.30;;;;;;5046870;28;20018;-70
2023/09/01 09:52:00;;;;;;;1528.65;999.90;;;33.90;91.50;;;;;;5043990;28;20124;-71
2023/09/01 09:54:29;;;;;;;1517.50;999.90;;;33.80;91.60;;;;;;5045251;28;20013;-70
2023/09/01 09:56:58;;;;;;;1505.82;999.90;;;33.80;92.00;;;;;;5045835;28;20407;-71
2023/09/01 09:59:37;;;;;;;1515.97;999.90;;;33.70;92.00;;;;;;5044068;28;20100;-71
2023/09/01 10:02:15;;;;;;;1520.90;999.90;;;33.70;92.30;;;;;;5049642;28;20013;-70
2023/09/01 10:04:43;;;;;;;1538.40;999.90;;;33.70;92.30;;;;;;5049509;28;20017;-71
2023/09/01 10:07:11;;;;;;;1538.60;999.90;;;33.60;92.60;;;;;;5047181;28;20037;-71
2023/09/01 10:09:38;;;;;;;1551.82;999.90;;;33.60;92.30;;;;;;5043696;28;20030;-71
2023/09/01 10:12:05;;;;;;;1528.82;999.90;;;33.60;92.00;;;;;;5041615;28;20104;-70
2023/09/01 10:14:37;;;;;;;1520.63;999.90;;;33.50;92.00;;;;;;5048200;28;20535;-72
2023/09/01 10:17:05;;;;;;;1589.10;999.90;;;33.40;92.10;;;;;;5060127;28;20509;-72
2023/09/01 10:19:32;;;;;;;1587.85;999.90;;;33.30;92.40;;;;;;5072357;28;20029;-71
2023/09/01 10:21:59;;;;;;;1560.68;999.90;;;33.30;92.40;;;;;;5074501;28;20387;-72
2023/09/01 10:24:25;;;;;;;1582.80;999.90;;;33.20;92.70;;;;;;5074197;28;20031;-71
2023/09/01 10:27:12;;;;;;;1595.50;999.90;;;33.20;92.60;;;;;;5044410;28;20029;-69
2023/09/01 10:29:38;;;;;;;1623.30;999.90;;;33.20;92.80;;;;;;5033875;28;20032;-72
2023/09/01 10:32:17;;;;;;;1584.68;999.90;;;33.20;92.50;;;;;;5033679;28;20014;-69
2023/09/01 10:34:55;;;;;;;1609.70;999.90;;;33.10;93.10;;;;;;5043543;28;20029;-69
2023/09/01 10:37:27;;;;;;;1594.93;999.90;;;33.10;92.80;;;;;;5073795;28;20028;-69
2023/09/01 10:39:54;;;;;;;1596.15;999.90;;;33.00;92.20;;;;;;5074226;28;20074;-71
2023/09/01 10:42:43;;;;;;;1588.20;999.90;;;32.90;92.10;;;;;;5074019;28;20024;-70
2023/09/01 10:45:11;;;;;;;1577.07;999.90;;;32.90;92.60;;;;;;5073497;28;20127;-71
2023/09/01 10:47:41;;;;;;;1553.70;999.90;;;32.80;92.60;;;;;;5073937;28;20021;-70
2023/09/01 10:50:12;;;;;;;1584.70;999.90;;;32.80;92.90;;;;;;5065529;28;20473;-71
2023/09/01 10:52:39;;;;;;;1566.45;999.90;;;32.80;93.50;;;;;;5053932;28;20025;-69
2023/09/01 10:55:07;;;;;;;1550.28;999.90;;;32.80;93.80;;;;;;5053392;28;20351;-71
2023/09/01 10:57:50;;;;;;;1567.70;999.90;;;32.70;93.60;;;;;;5053615;28;20025;-69
2023/09/01 11:00:28;;;;;;;1536.78;999.90;;;32.70;93.70;;;;;;5053829;28;20048;-69
2023/09/01 11:03:15;;;;;;;1537.00;999.90;;;32.60;93.60;;;;;;5053592;28;20048;-69
2023/09/01 11:05:42;;;;;;;1536.72;999.90;;;32.50;93.20;;;;;;5064312;28;20044;-69
2023/09/01 11:08:19;;;;;;;1548.22;999.90;;;32.50;94.00;;;;;;5053419;28;20508;-70
2023/09/01 11:10:45;;;;;;;1557.22;999.90;;;32.50;94.00;;;;;;5053718;28;20111;-70
2023/09/01 11:13:18;;;;;;;1545.30;999.90;;;32.40;93.90;;;;;;5054213;28;20028;-70
2023/09/01 11:15:48;;;;;;;1564.80;999.90;;;32.40;94.10;;;;;;5053782;28;20029;-71
2023/09/01 11:18:19;;;;;;;1553.22;999.90;;;32.40;93.80;;;;;;5053740;28;20029;-71
2023/09/01 11:20:49;;;;;;;1572.28;999.90;;;32.30;94.20;;;;;;5053419;28;20029;-70
2023/09/01 11:23:25;;;;;;;1564.90;999.90;;;32.30;94.00;;;;;;5051065;28;20025;-70
2023/09/01 11:25:58;;;;;;;1572.28;999.90;;;32.20;94.20;;;;;;5042617;28;20042;-69
2023/09/01 11:28:26;;;;;;;1548.43;999.90;;;32.20;94.20;;;;;;5042232;28;20018;-70
2023/09/01 11:30:54;;;;;;;1566.93;999.90;;;32.10;94.50;;;;;;5041308;28;20013;-70
2023/09/01 11:33:22;;;;;;;1536.72;999.90;;;32.10;94.60;;;;;;5052610;28;20032;-70
2023/09/01 11:35:49;;;;;;;1573.03;999.90;;;32.10;95.30;;;;;;5053924;28;20075;-69
2023/09/01 11:38:20;;;;;;;1584.53;999.90;;;32.10;95.20;;;;;;5066198;28;20060;-69
2023/09/01 11:40:49;;;;;;;1581.20;999.90;;;32.00;95.50;;;;;;5060926;28;20025;-70
2023/09/01 11:43:16;;;;;;;1573.72;999.90;;;32.00;95.80;;;;;;5071816;28;20477;-72
2023/09/01 11:45:51;;;;;;;1546.97;999.90;;;31.90;95.90;;;;;;5060061;28;20136;-74
2023/09/01 11:48:28;;;;;;;1568.20;999.90;;;31.90;96.10;;;;;;5051619;28;20528;-72
2023/09/01 11:50:57;;;;;;;1548.28;999.90;;;31.80;96.30;;;;;;5052224;28;20057;-72
2023/09/01 11:53:28;;;;;;;1577.45;999.90;;;31.80;96.70;;;;;;5052119;28;20074;-71
2023/09/01 11:55:58;;;;;;;1571.97;999.90;;;31.70;96.80;;;;;;5051899;28;20029;-72
2023/09/01 11:59:02;;;;;;;1572.22;999.90;;;31.70;97.30;;;;;;5052561;28;20258;-71
2023/09/01 12:01:35;;;;;;;1586.82;999.90;;;31.70;97.40;;;;;;5052763;28;20029;-71
2023/09/01 12:04:05;;;;;;;1601.63;999.90;;;31.60;97.60;;;;;;5052226;28;20025;-72
2023/09/01 12:06:32;;;;;;;1602.40;999.90;;;31.60;98.30;;;;;;5052490;28;20048;-73